Time;durP1;ratioP1;P1;durP2;ratioP2;P2;SDS_P1;SDS_P2;PMS_P1;PMS_P2;Temp;Humidity;BMP_temperature;BMP_pressure;BME280_temperature;BME280_humidity;BME280_pressure;Samples;Min_cycle;Max_cycle;Signal;HPM_P1;HPM_P2
2024/03/11 00:00:43;;;;;;;2.20;1.33;;;14.80;40.30;;;;;;5007471;28;20410;-57
2024/03/11 00:03:13;;;;;;;1.25;0.90;;;14.80;40.30;;;;;;5015805;28;20528;-58
2024/03/11 00:05:44;;;;;;;0.85;0.70;;;14.70;40.30;;;;;;5022382;28;20086;-50
2024/03/11 00:08:16;;;;;;;2.75;0.90;;;14.70;40.40;;;;;;5014616;28;20057;-54
2024/03/11 00:10:45;;;;;;;1.20;0.65;;;14.60;40.40;;;;;;5006847;28;20496;-52
2024/03/11 00:13:17;;;;;;;0.85;0.82;;;14.60;40.40;;;;;;5007715;28;20125;-54
2024/03/11 00:15:46;;;;;;;0.50;0.50;;;14.50;40.40;;;;;;5012327;28;20057;-49
2024/03/11 00:18:14;;;;;;;1.20;0.70;;;14.50;40.50;;;;;;5015786;28;20057;-53
2024/03/11 00:20:43;;;;;;;1.42;0.80;;;14.40;40.50;;;;;;5006868;28;20586;-55
2024/03/11 00:23:12;;;;;;;0.65;0.50;;;14.40;41.10;;;;;;5011042;28;20059;-57
2024/03/11 00:25:41;;;;;;;0.50;0.50;;;14.30;40.70;;;;;;5013139;28;20110;-56
2024/03/11 00:28:09;;;;;;;0.50;0.50;;;14.20;40.80;;;;;;5013005;28;20100;-57
2024/03/11 00:30:39;;;;;;;0.77;0.60;;;14.20;40.90;;;;;;5008486;28;20564;-57
2024/03/11 00:33:09;;;;;;;0.65;0.57;;;14.10;40.90;;;;;;5012802;28;20511;-54
2024/03/11 00:35:43;;;;;;;0.50;0.50;;;14.10;40.90;;;;;;5012793;28;20057;-56
2024/03/11 00:38:12;;;;;;;0.77;0.70;;;14.00;41.00;;;;;;5013105;28;20057;-58
2024/03/11 00:40:41;;;;;;;0.80;0.80;;;14.00;41.00;;;;;;5009718;28;20445;-57
2024/03/11 00:43:09;;;;;;;1.02;0.68;;;14.00;41.30;;;;;;5018856;28;20049;-59
2024/03/11 00:45:39;;;;;;;0.75;0.55;;;14.00;41.10;;;;;;5014408;28;20132;-59
2024/03/11 00:48:11;;;;;;;0.82;0.82;;;14.00;41.10;;;;;;5010652;28;20057;-56
2024/03/11 00:50:40;;;;;;;0.60;0.60;;;14.00;41.10;;;;;;5011362;28;20057;-57
2024/03/11 00:53:08;;;;;;;1.02;0.73;;;13.90;41.10;;;;;;5012239;28;20053;-57
2024/03/11 00:55:38;;;;;;;0.95;0.90;;;13.90;41.20;;;;;;5018157;28;20913;-55
2024/03/11 00:58:07;;;;;;;0.47;0.47;;;13.90;41.20;;;;;;5013146;28;20454;-56
2024/03/11 01:00:36;;;;;;;1.35;0.60;;;13.90;41.30;;;;;;5007892;28;20049;-54
2024/03/11 01:03:09;;;;;;;0.70;0.70;;;13.80;41.30;;;;;;5013179;28;20057;-58
2024/03/11 01:05:39;;;;;;;0.82;0.57;;;13.80;41.40;;;;;;5029795;28;20778;-58
2024/03/11 01:08:09;;;;;;;1.67;1.10;;;13.80;41.40;;;;;;5017994;28;20149;-58
2024/03/11 01:10:37;;;;;;;0.30;0.30;;;13.80;41.50;;;;;;5009396;28;20049;-56
2024/03/11 01:13:07;;;;;;;1.90;1.13;;;13.80;41.60;;;;;;5015460;28;20123;-58
2024/03/11 01:15:35;;;;;;;1.15;0.40;;;13.70;41.60;;;;;;5013861;28;20153;-58
2024/03/11 01:18:07;;;;;;;1.45;0.63;;;13.70;41.60;;;;;;5010909;28;20057;-58
2024/03/11 01:20:35;;;;;;;0.30;0.30;;;13.70;41.70;;;;;;5008644;28;20059;-58
2024/03/11 01:23:05;;;;;;;0.73;0.73;;;13.60;41.70;;;;;;5015726;28;20076;-57
2024/03/11 01:25:34;;;;;;;0.55;0.55;;;13.70;41.90;;;;;;5016840;28;20080;-58
2024/03/11 01:28:02;;;;;;;0.30;0.30;;;13.80;41.90;;;;;;5010708;28;20119;-58
2024/03/11 01:30:34;;;;;;;0.60;0.60;;;13.80;41.90;;;;;;5013499;28;20064;-57
2024/03/11 01:33:04;;;;;;;1.15;0.80;;;13.90;41.90;;;;;;5016093;28;20061;-57
2024/03/11 01:35:37;;;;;;;0.50;0.47;;;14.00;41.90;;;;;;5012494;28;20514;-56
2024/03/11 01:38:05;;;;;;;0.47;0.47;;;14.00;41.90;;;;;;5014555;28;20132;-56
2024/03/11 01:40:33;;;;;;;0.43;0.43;;;14.10;41.80;;;;;;5009192;28;20106;-57
2024/03/11 01:43:02;;;;;;;0.47;0.47;;;14.20;41.80;;;;;;5014693;28;20061;-56
2024/03/11 01:45:32;;;;;;;0.50;0.50;;;14.20;41.70;;;;;;5011829;28;20496;-57
2024/03/11 01:48:03;;;;;;;0.35;0.35;;;14.30;41.70;;;;;;5021857;28;20049;-56
2024/03/11 01:50:32;;;;;;;0.40;0.40;;;14.30;41.70;;;;;;5005984;28;20044;-56
2024/03/11 01:53:03;;;;;;;1.08;0.57;;;14.20;41.60;;;;;;5015631;28;20057;-56
2024/03/11 01:55:33;;;;;;;0.40;0.40;;;14.20;41.70;;;;;;5010807;28;20049;-57
2024/03/11 01:58:03;;;;;;;3.00;0.60;;;14.10;41.70;;;;;;5016143;28;20220;-57
2024/03/11 02:00:31;;;;;;;0.43;0.43;;;14.10;41.80;;;;;;5009775;28;20061;-53
2024/03/11 02:03:00;;;;;;;3.40;0.40;;;14.10;41.80;;;;;;5015757;28;20131;-57
2024/03/11 02:05:28;;;;;;;0.40;0.40;;;14.00;41.90;;;;;;5012617;28;20053;-56
2024/03/11 02:07:59;;;;;;;0.30;0.30;;;13.90;41.90;;;;;;5014148;28;20062;-57
2024/03/11 02:10:30;;;;;;;0.65;0.65;;;13.90;42.20;;;;;;5012776;28;20050;-58
2024/03/11 02:13:00;;;;;;;0.50;0.47;;;13.90;42.10;;;;;;5012310;28;20111;-57
2024/03/11 02:15:29;;;;;;;0.35;0.35;;;13.90;41.90;;;;;;5016342;28;20057;-57
2024/03/11 02:17:58;;;;;;;0.93;0.57;;;13.90;41.90;;;;;;5010236;28;20468;-57
2024/03/11 02:20:28;;;;;;;0.50;0.50;;;13.90;41.90;;;;;;5015903;28;20080;-54
2024/03/11 02:22:57;;;;;;;2.10;0.73;;;13.90;41.90;;;;;;5008138;28;20065;-55
2024/03/11 02:25:28;;;;;;;0.70;0.60;;;13.90;41.90;;;;;;5010429;28;20423;-56
2024/03/11 02:27:59;;;;;;;0.68;0.65;;;13.90;42.00;;;;;;5012482;28;20104;-61
2024/03/11 02:30:28;;;;;;;0.75;0.75;;;13.90;42.00;;;;;;5009982;28;20061;-54
2024/03/11 02:32:57;;;;;;;0.32;0.32;;;13.90;42.10;;;;;;5009203;28;20741;-54
2024/03/11 02:35:27;;;;;;;0.73;0.73;;;13.90;42.10;;;;;;5012486;28;20072;-56
2024/03/11 02:37:55;;;;;;;0.40;0.40;;;14.00;42.20;;;;;;5009598;28;20092;-57
2024/03/11 02:40:26;;;;;;;0.75;0.75;;;14.00;42.10;;;;;;5012301;28;20064;-55
2024/03/11 02:42:57;;;;;;;2.15;0.60;;;14.10;42.10;;;;;;5014732;28;20053;-59
2024/03/11 02:45:30;;;;;;;0.60;0.60;;;14.20;42.10;;;;;;5011604;28;20494;-54
2024/03/11 02:47:59;;;;;;;0.47;0.47;;;14.30;42.10;;;;;;5016012;28;20290;-55
2024/03/11 02:50:28;;;;;;;0.40;0.40;;;14.30;42.00;;;;;;5011647;28;20060;-56
2024/03/11 02:52:56;;;;;;;0.73;0.73;;;14.40;41.90;;;;;;5009525;28;20503;-57
2024/03/11 02:55:24;;;;;;;0.38;0.38;;;14.40;41.90;;;;;;5011927;28;20443;-56
2024/03/11 02:57:53;;;;;;;0.40;0.40;;;14.30;42.50;;;;;;5017967;28;20060;-58
2024/03/11 03:00:23;;;;;;;0.50;0.50;;;14.30;41.80;;;;;;5025274;28;20053;-57
2024/03/11 03:02:52;;;;;;;0.57;0.50;;;14.30;41.90;;;;;;5007226;28;20064;-57
2024/03/11 03:05:21;;;;;;;0.70;0.47;;;14.10;41.80;;;;;;5010680;28;20080;-60
2024/03/11 03:07:50;;;;;;;2.20;0.60;;;14.00;41.90;;;;;;5015023;28;20081;-57
2024/03/11 03:10:19;;;;;;;0.50;0.50;;;14.00;42.00;;;;;;5015145;28;20168;-55
2024/03/11 03:12:47;;;;;;;1.38;0.50;;;13.90;42.00;;;;;;5004432;28;20053;-57
2024/03/11 03:15:16;;;;;;;2.80;1.40;;;13.80;42.10;;;;;;5011802;28;20115;-58
2024/03/11 03:17:47;;;;;;;0.65;0.60;;;13.70;42.10;;;;;;5012832;28;20062;-57
2024/03/11 03:20:15;;;;;;;6.40;0.95;;;13.60;42.10;;;;;;5008609;28;20107;-58
2024/03/11 03:22:47;;;;;;;0.30;0.30;;;13.60;42.20;;;;;;5006467;28;20528;-54
2024/03/11 03:25:15;;;;;;;0.30;0.30;;;13.50;42.20;;;;;;5013035;28;20399;-58
2024/03/11 03:27:44;;;;;;;0.40;0.40;;;13.50;42.40;;;;;;5015784;28;20057;-57
2024/03/11 03:30:15;;;;;;;0.40;0.40;;;13.50;42.30;;;;;;5011881;28;20480;-56
2024/03/11 03:32:43;;;;;;;0.80;0.80;;;13.40;42.40;;;;;;5001222;28;20045;-53
2024/03/11 03:35:14;;;;;;;3.50;1.48;;;13.40;42.40;;;;;;5007932;28;20061;-59
2024/03/11 03:37:42;;;;;;;0.63;0.60;;;13.30;42.40;;;;;;5013249;28;20576;-54
2024/03/11 03:40:15;;;;;;;0.70;0.70;;;13.30;42.50;;;;;;5013504;28;20122;-58
2024/03/11 03:42:47;;;;;;;0.38;0.38;;;13.30;42.60;;;;;;5007085;28;20068;-57
2024/03/11 03:45:17;;;;;;;0.60;0.60;;;13.20;42.60;;;;;;5014967;28;20066;-60
2024/03/11 03:47:46;;;;;;;0.60;0.60;;;13.10;42.60;;;;;;5013326;28;20087;-55
2024/03/11 03:50:17;;;;;;;0.98;0.68;;;13.10;42.70;;;;;;5012152;28;20045;-57
2024/03/11 03:52:46;;;;;;;0.50;0.50;;;13.10;42.80;;;;;;5007613;28;20583;-59
2024/03/11 03:55:14;;;;;;;0.93;0.65;;;13.00;42.80;;;;;;5013168;28;20122;-57
2024/03/11 03:57:44;;;;;;;0.52;0.50;;;13.00;42.80;;;;;;5012572;28;20137;-56
2024/03/11 04:00:16;;;;;;;0.50;0.50;;;13.00;42.90;;;;;;5022129;28;20090;-57
2024/03/11 04:02:46;;;;;;;5.07;0.77;;;13.00;42.90;;;;;;5007993;28;20126;-57
2024/03/11 04:05:18;;;;;;;4.82;2.00;;;13.10;43.00;;;;;;5011250;28;20173;-59
2024/03/11 04:07:47;;;;;;;4.93;2.55;;;13.10;43.00;;;;;;5011990;28;20112;-55
2024/03/11 04:10:17;;;;;;;4.18;1.35;;;13.10;42.90;;;;;;5013924;28;20057;-57
2024/03/11 04:12:48;;;;;;;6.32;1.55;;;13.10;42.90;;;;;;5023500;28;20060;-56
2024/03/11 04:15:19;;;;;;;2.17;1.50;;;13.20;42.90;;;;;;5015569;28;20603;-57
2024/03/11 04:17:49;;;;;;;1.75;1.27;;;13.20;42.80;;;;;;5031922;28;20037;-55
2024/03/11 04:20:22;;;;;;;1.67;1.33;;;13.20;42.80;;;;;;5015029;28;20070;-60
2024/03/11 04:22:53;;;;;;;4.30;1.25;;;13.10;42.80;;;;;;5008074;28;20061;-56
2024/03/11 04:25:25;;;;;;;1.10;1.00;;;13.10;42.90;;;;;;5018487;28;20444;-57
2024/03/11 04:27:55;;;;;;;2.05;1.25;;;13.10;43.00;;;;;;5012810;28;20049;-58
2024/03/11 04:30:28;;;;;;;3.72;1.60;;;13.20;43.10;;;;;;5019103;28;20112;-55
2024/03/11 04:32:58;;;;;;;1.67;1.27;;;13.30;43.10;;;;;;5010882;28;20063;-55
2024/03/11 04:35:29;;;;;;;5.53;1.38;;;13.30;43.00;;;;;;5018359;28;20141;-57
2024/03/11 04:38:01;;;;;;;3.80;1.17;;;13.30;43.10;;;;;;5015141;28;20151;-55
2024/03/11 04:40:31;;;;;;;2.25;1.30;;;13.40;43.10;;;;;;5009511;28;20045;-56
2024/03/11 04:43:02;;;;;;;0.85;0.85;;;13.40;43.00;;;;;;5016063;28;20045;-58
2024/03/11 04:45:31;;;;;;;3.88;1.75;;;13.30;43.00;;;;;;5016573;28;20057;-57
2024/03/11 04:48:01;;;;;;;1.67;1.00;;;13.30;43.10;;;;;;5017943;28;20507;-56
2024/03/11 04:50:34;;;;;;;1.58;0.80;;;13.20;43.10;;;;;;5014545;28;20065;-55
2024/03/11 04:53:07;;;;;;;2.60;0.55;;;13.20;43.20;;;;;;5013247;28;20594;-58
2024/03/11 04:55:37;;;;;;;5.38;1.60;;;13.20;43.10;;;;;;5016553;28;20045;-57
2024/03/11 04:58:06;;;;;;;0.80;0.80;;;13.20;43.20;;;;;;5016132;28;20376;-58
2024/03/11 05:00:34;;;;;;;3.88;1.40;;;13.10;43.20;;;;;;5009370;28;20128;-56
2024/03/11 05:03:04;;;;;;;1.15;1.02;;;13.10;43.40;;;;;;5016242;28;20048;-56
2024/03/11 05:05:35;;;;;;;1.67;1.58;;;13.10;43.40;;;;;;5017846;28;20103;-57
2024/03/11 05:08:06;;;;;;;9.18;1.05;;;13.10;44.30;;;;;;5018592;28;20107;-58
2024/03/11 05:10:35;;;;;;;15.05;1.52;;;13.10;43.40;;;;;;5016591;28;20057;-53
2024/03/11 05:13:05;;;;;;;1.10;1.10;;;13.10;43.50;;;;;;5014450;28;20045;-56
2024/03/11 05:15:34;;;;;;;2.15;1.13;;;13.10;43.50;;;;;;5014389;28;20046;-56
2024/03/11 05:18:03;;;;;;;1.80;1.17;;;13.00;43.50;;;;;;5013646;28;20060;-56
2024/03/11 05:20:33;;;;;;;0.95;0.90;;;13.00;43.50;;;;;;5006811;28;20520;-51
2024/03/11 05:23:01;;;;;;;1.67;1.42;;;13.00;43.70;;;;;;5015790;28;20065;-57
2024/03/11 05:25:30;;;;;;;0.70;0.70;;;12.90;43.70;;;;;;5010422;28;20057;-56
2024/03/11 05:27:58;;;;;;;1.65;1.00;;;12.90;43.70;;;;;;5012512;28;20065;-59
2024/03/11 05:30:28;;;;;;;0.57;0.57;;;12.90;43.70;;;;;;5016207;28;20104;-54
2024/03/11 05:32:56;;;;;;;1.90;0.75;;;12.90;43.80;;;;;;5008970;28;20076;-57
2024/03/11 05:35:25;;;;;;;1.33;0.88;;;12.80;44.20;;;;;;5013922;28;20058;-56
2024/03/11 05:37:56;;;;;;;3.28;1.05;;;12.70;43.80;;;;;;5008923;28;20115;-60
2024/03/11 05:40:24;;;;;;;0.90;0.90;;;12.70;43.90;;;;;;5015888;28;20068;-62
2024/03/11 05:42:55;;;;;;;0.60;0.60;;;12.80;44.10;;;;;;4888083;28;20136;-61
2024/03/11 05:45:30;;;;;;;1.30;1.08;;;12.80;44.20;;;;;;4988407;28;20053;-60
2024/03/11 05:48:04;;;;;;;1.00;0.90;;;12.90;44.20;;;;;;5008299;28;20541;-59
2024/03/11 05:50:33;;;;;;;0.98;0.95;;;12.90;44.70;;;;;;5003775;28;20139;-59
2024/03/11 05:53:03;;;;;;;1.88;0.95;;;13.00;44.00;;;;;;5007531;28;20097;-61
2024/03/11 05:55:33;;;;;;;0.88;0.88;;;13.40;44.80;;;;;;5010732;28;20857;-61
2024/03/11 05:58:08;;;;;;;1.00;0.85;;;13.20;44.00;;;;;;5006760;28;22149;-62
2024/03/11 06:00:42;;;;;;;0.85;0.85;;;13.30;44.00;;;;;;4999623;28;20127;-58
2024/03/11 06:03:11;;;;;;;0.70;0.70;;;13.30;43.90;;;;;;5014275;28;20112;-59
2024/03/11 06:05:43;;;;;;;1.13;0.77;;;13.40;43.90;;;;;;5007568;28;20136;-57
2024/03/11 06:08:14;;;;;;;2.47;1.33;;;13.40;43.90;;;;;;5010496;28;20057;-59
2024/03/11 06:10:42;;;;;;;1.25;1.15;;;13.50;43.90;;;;;;5004298;28;20049;-60
2024/03/11 06:13:11;;;;;;;1.73;0.95;;;13.60;43.90;;;;;;5008997;28;20061;-57
2024/03/11 06:15:39;;;;;;;4.15;1.02;;;13.80;43.80;;;;;;5010866;28;20049;-63
2024/03/11 06:18:08;;;;;;;3.97;1.40;;;13.90;43.80;;;;;;5008683;28;20575;-62
2024/03/11 06:20:36;;;;;;;3.38;1.02;;;14.00;43.80;;;;;;4998593;28;20141;-57
2024/03/11 06:23:06;;;;;;;4.10;1.70;;;14.10;43.70;;;;;;5008500;28;20132;-60
2024/03/11 06:25:36;;;;;;;3.70;1.85;;;14.20;43.70;;;;;;5006429;28;20502;-60
2024/03/11 06:28:05;;;;;;;9.73;1.75;;;14.30;43.70;;;;;;5006062;28;20064;-62
2024/03/11 06:30:34;;;;;;;4.65;2.28;;;14.40;43.60;;;;;;5003259;28;20093;-59
2024/03/11 06:33:04;;;;;;;5.38;1.70;;;14.50;43.60;;;;;;5004181;28;21280;-61
2024/03/11 06:35:35;;;;;;;2.78;1.15;;;14.50;43.50;;;;;;5006653;28;20161;-59
2024/03/11 06:38:04;;;;;;;2.53;1.80;;;14.60;43.50;;;;;;5006569;28;20061;-59
2024/03/11 06:40:32;;;;;;;2.10;1.15;;;14.70;43.50;;;;;;4997233;28;20686;-58
2024/03/11 06:43:02;;;;;;;1.60;1.25;;;14.80;44.10;;;;;;5004075;28;20539;-63
2024/03/11 06:45:30;;;;;;;5.57;1.10;;;14.80;43.40;;;;;;5003532;28;20151;-58
2024/03/11 06:47:59;;;;;;;1.88;1.08;;;14.80;43.30;;;;;;5008330;28;20066;-55
2024/03/11 06:50:28;;;;;;;3.72;1.85;;;14.90;44.30;;;;;;5007617;28;20053;-56
2024/03/11 06:52:56;;;;;;;1.42;1.33;;;15.00;43.40;;;;;;5005438;28;20585;-55
2024/03/11 06:55:24;;;;;;;1.95;1.23;;;15.10;43.40;;;;;;5006497;28;20188;-55
2024/03/11 06:57:52;;;;;;;2.80;1.23;;;15.20;43.30;;;;;;5007672;28;20064;-58
2024/03/11 07:00:25;;;;;;;8.57;1.80;;;15.30;43.10;;;;;;5007079;28;20140;-57
2024/03/11 07:02:53;;;;;;;2.38;1.35;;;15.30;43.10;;;;;;5003905;28;20693;-58
2024/03/11 07:05:26;;;;;;;3.50;1.83;;;15.40;43.10;;;;;;5009629;28;20045;-58
2024/03/11 07:07:56;;;;;;;4.72;0.95;;;15.40;43.20;;;;;;5006746;28;20060;-60
2024/03/11 07:10:25;;;;;;;2.22;1.38;;;15.60;43.20;;;;;;5008334;28;20053;-53
2024/03/11 07:12:54;;;;;;;3.55;1.77;;;15.70;43.10;;;;;;5004435;28;20087;-58
2024/03/11 07:15:25;;;;;;;2.70;1.50;;;15.80;43.00;;;;;;5009908;28;20134;-59
2024/03/11 07:17:53;;;;;;;9.60;2.00;;;15.80;43.00;;;;;;5010737;28;20503;-58
2024/03/11 07:20:23;;;;;;;1.38;1.27;;;15.90;42.90;;;;;;5024358;28;20184;-55
2024/03/11 07:22:53;;;;;;;2.67;1.50;;;16.00;42.80;;;;;;5004024;28;20053;-61
2024/03/11 07:25:21;;;;;;;3.10;2.38;;;16.10;42.80;;;;;;5008601;28;20120;-60
2024/03/11 07:27:50;;;;;;;7.20;1.80;;;16.10;42.80;;;;;;5005587;28;20057;-58
2024/03/11 07:30:22;;;;;;;2.92;1.58;;;16.20;42.80;;;;;;5008543;28;20050;-55
2024/03/11 07:33:05;;;;;;;4.07;1.42;;;16.30;42.70;;;;;;4998797;28;20261;-51
2024/03/11 07:35:35;;;;;;;2.17;1.65;;;16.30;42.80;;;;;;5009669;28;20068;-58
2024/03/11 07:38:05;;;;;;;4.50;1.38;;;16.40;42.60;;;;;;5007638;28;20192;-55
2024/03/11 07:40:34;;;;;;;8.40;1.70;;;16.40;42.60;;;;;;5003638;28;20053;-58
2024/03/11 07:43:06;;;;;;;2.40;1.58;;;16.60;42.60;;;;;;5007603;28;20058;-55
2024/03/11 07:45:34;;;;;;;20.98;6.03;;;16.60;42.60;;;;;;5008032;28;20119;-58
2024/03/11 07:48:06;;;;;;;2.58;1.63;;;16.80;42.50;;;;;;5012451;28;20107;-56
2024/03/11 07:50:35;;;;;;;5.43;1.92;;;16.90;42.50;;;;;;5006916;28;20066;-57
2024/03/11 07:53:03;;;;;;;6.45;3.30;;;17.00;42.50;;;;;;5014107;28;20068;-58
2024/03/11 07:55:32;;;;;;;4.95;1.98;;;17.10;42.40;;;;;;5013326;28;20065;-54
2024/03/11 07:58:01;;;;;;;9.32;1.58;;;17.20;42.30;;;;;;5011921;28;20061;-58
2024/03/11 08:00:36;;;;;;;6.13;1.40;;;17.40;42.30;;;;;;5012382;28;20050;-60
2024/03/11 08:03:06;;;;;;;11.68;5.07;;;17.50;42.20;;;;;;5011732;28;20143;-57
2024/03/11 08:05:36;;;;;;;6.72;3.25;;;17.50;42.00;;;;;;5011383;28;20119;-61
2024/03/11 08:08:06;;;;;;;0.93;0.93;;;17.60;42.00;;;;;;5004837;28;20057;-61
2024/03/11 08:10:34;;;;;;;6.10;2.10;;;17.70;42.00;;;;;;4998019;28;20819;-59
2024/03/11 08:13:04;;;;;;;3.00;1.52;;;17.70;41.90;;;;;;5008187;28;20061;-62
2024/03/11 08:15:32;;;;;;;22.58;4.40;;;17.80;41.90;;;;;;5022800;28;20068;-62
2024/03/11 08:18:00;;;;;;;17.00;3.38;;;17.90;41.90;;;;;;5012139;28;20053;-61
2024/03/11 08:20:31;;;;;;;3.35;1.60;;;18.00;41.80;;;;;;5008389;28;20546;-59
2024/03/11 08:22:59;;;;;;;3.55;2.05;;;18.10;41.80;;;;;;5013957;28;20868;-63
2024/03/11 08:25:31;;;;;;;1.88;1.50;;;18.20;41.70;;;;;;5011702;28;20064;-61
2024/03/11 08:28:00;;;;;;;2.25;1.38;;;18.30;41.60;;;;;;5006642;28;20360;-61
2024/03/11 08:30:28;;;;;;;3.22;1.58;;;18.50;41.60;;;;;;5007883;28;20068;-56
2024/03/11 08:32:57;;;;;;;2.20;1.90;;;18.60;41.50;;;;;;5005445;28;20558;-55
2024/03/11 08:35:26;;;;;;;5.35;1.60;;;18.80;41.50;;;;;;5011474;28;20061;-54
2024/03/11 08:37:56;;;;;;;2.30;1.83;;;18.90;41.30;;;;;;5011008;28;21136;-73
2024/03/11 08:40:25;;;;;;;2.20;1.58;;;19.10;41.20;;;;;;5025610;28;20053;-73
2024/03/11 08:42:56;;;;;;;8.65;1.27;;;19.20;41.10;;;;;;5022022;28;20053;-66
2024/03/11 08:45:28;;;;;;;5.50;2.55;;;19.40;41.10;;;;;;5010344;28;20813;-67
2024/03/11 08:47:57;;;;;;;2.55;1.73;;;19.60;41.20;;;;;;5008690;28;20502;-62
2024/03/11 08:50:26;;;;;;;3.50;1.90;;;19.80;41.10;;;;;;5009469;28;20094;-62
2024/03/11 08:52:56;;;;;;;2.78;1.45;;;20.00;40.80;;;;;;5007951;28;20134;-62
2024/03/11 08:55:24;;;;;;;8.80;1.40;;;20.20;40.60;;;;;;5009830;28;20815;-64
2024/03/11 08:57:54;;;;;;;2.00;1.38;;;20.40;40.50;;;;;;5006778;28;20182;-63
2024/03/11 09:00:27;;;;;;;10.63;2.65;;;20.70;40.30;;;;;;5017959;28;20037;-63
2024/03/11 09:02:56;;;;;;;11.98;0.90;;;20.80;40.00;;;;;;4999929;28;20073;-63
2024/03/11 09:05:25;;;;;;;8.75;2.35;;;20.90;39.60;;;;;;5008297;28;20069;-63
2024/03/11 09:07:56;;;;;;;0.90;0.85;;;20.90;39.50;;;;;;5012173;28;20096;-61
2024/03/11 09:10:24;;;;;;;8.52;3.05;;;20.90;39.40;;;;;;5009062;28;20058;-62
2024/03/11 09:12:54;;;;;;;3.10;1.15;;;20.90;39.30;;;;;;5006195;28;20440;-61
2024/03/11 09:15:23;;;;;;;2.28;0.82;;;20.80;39.20;;;;;;5010383;28;21072;-63
2024/03/11 09:17:53;;;;;;;2.60;1.20;;;20.80;39.20;;;;;;5011672;28;20057;-61
2024/03/11 09:20:26;;;;;;;3.10;1.75;;;20.90;39.20;;;;;;5008133;28;20477;-64
2024/03/11 09:22:57;;;;;;;5.05;1.20;;;20.90;39.20;;;;;;5011086;28;20053;-60
2024/03/11 09:25:27;;;;;;;5.30;1.75;;;20.90;39.00;;;;;;5010140;28;20057;-61
2024/03/11 09:28:00;;;;;;;1.17;0.82;;;20.80;38.70;;;;;;5010950;28;20062;-64
2024/03/11 09:30:34;;;;;;;1.25;0.73;;;20.70;38.80;;;;;;5006300;28;20080;-62
2024/03/11 09:33:04;;;;;;;0.50;0.50;;;20.70;38.90;;;;;;5008011;28;20084;-64
2024/03/11 09:35:32;;;;;;;2.33;1.10;;;20.60;38.70;;;;;;5003403;28;20159;-61
2024/03/11 09:38:02;;;;;;;1.30;0.90;;;20.50;38.70;;;;;;5009940;28;20542;-64
2024/03/11 09:40:31;;;;;;;2.45;0.70;;;20.40;38.60;;;;;;5008382;28;20556;-70
2024/03/11 09:43:01;;;;;;;0.82;0.50;;;20.40;38.60;;;;;;5011359;28;20056;-69
2024/03/11 09:45:34;;;;;;;1.10;0.70;;;20.40;38.60;;;;;;5011200;28;20057;-60
2024/03/11 09:48:05;;;;;;;1.40;0.88;;;20.40;38.70;;;;;;5006861;28;20084;-61
2024/03/11 09:50:37;;;;;;;2.47;1.30;;;20.60;38.90;;;;;;5005358;28;20049;-69
2024/03/11 09:53:12;;;;;;;4.22;1.20;;;20.90;38.80;;;;;;5010330;28;20057;-66
2024/03/11 09:55:43;;;;;;;4.65;0.77;;;21.10;38.50;;;;;;5010760;28;20129;-66
2024/03/11 09:58:15;;;;;;;5.10;1.38;;;21.30;38.40;;;;;;5009804;28;20084;-66
2024/03/11 10:00:49;;;;;;;1.92;0.95;;;21.50;38.20;;;;;;5001340;28;20053;-65
2024/03/11 10:03:24;;;;;;;4.38;1.00;;;21.70;38.00;;;;;;5011337;28;20492;-66
2024/03/11 10:05:56;;;;;;;0.52;0.50;;;21.70;37.80;;;;;;5025181;28;20045;-64
2024/03/11 10:08:30;;;;;;;1.02;0.70;;;21.90;37.60;;;;;;5010110;28;20500;-65
2024/03/11 10:11:28;;;;;;;1.65;0.60;;;21.90;37.60;;;;;;5006334;28;20128;-65
2024/03/11 10:13:57;;;;;;;0.95;0.73;;;22.00;37.40;;;;;;4993432;28;20167;-63
2024/03/11 10:16:27;;;;;;;0.63;0.63;;;22.20;37.30;;;;;;5008019;28;20066;-61
2024/03/11 10:19:00;;;;;;;0.40;0.40;;;22.30;37.30;;;;;;5003048;28;20081;-64
2024/03/11 10:21:33;;;;;;;0.60;0.60;;;22.40;36.90;;;;;;5011267;28;20061;-63
2024/03/11 10:24:08;;;;;;;0.45;0.43;;;22.50;36.90;;;;;;5004933;28;20148;-68
2024/03/11 10:26:41;;;;;;;1.30;0.73;;;22.60;36.60;;;;;;5000132;28;20053;-63
2024/03/11 10:29:12;;;;;;;1.40;0.70;;;22.60;36.50;;;;;;5004259;28;20061;-65
2024/03/11 10:31:45;;;;;;;2.22;0.43;;;22.60;36.60;;;;;;5006450;28;20057;-68
2024/03/11 10:34:20;;;;;;;1.23;0.88;;;22.60;36.40;;;;;;5025151;28;20037;-64
2024/03/11 10:36:57;;;;;;;;;;;22.70;36.50;;;;;;5004697;28;20525;-66
2024/03/11 10:39:37;;;;;;;0.43;0.40;;;22.70;36.50;;;;;;5025077;28;20315;-65
2024/03/11 10:42:14;;;;;;;6.32;0.77;;;22.80;36.30;;;;;;5010118;28;20041;-66
2024/03/11 10:44:45;;;;;;;6.78;0.90;;;22.90;36.30;;;;;;5001024;28;20079;-65
2024/03/11 10:47:15;;;;;;;0.30;0.30;;;22.80;36.00;;;;;;5007813;28;20180;-66
2024/03/11 10:49:47;;;;;;;0.95;0.57;;;22.80;36.70;;;;;;5005726;28;20053;-64
2024/03/11 10:52:20;;;;;;;4.55;0.50;;;22.80;35.90;;;;;;5009455;28;20065;-63
2024/03/11 10:54:54;;;;;;;3.63;0.88;;;22.70;36.00;;;;;;5000660;28;20136;-64
2024/03/11 10:57:43;;;;;;;1.20;1.10;;;22.70;35.90;;;;;;5007803;28;20116;-67
2024/03/11 11:00:20;;;;;;;5.18;0.80;;;22.70;35.90;;;;;;5005807;28;20416;-65
2024/03/11 11:03:01;;;;;;;1.13;0.95;;;22.50;35.70;;;;;;5012722;28;20045;-64
2024/03/11 11:05:33;;;;;;;1.23;0.90;;;22.50;35.80;;;;;;5008976;28;20687;-66
2024/03/11 11:08:03;;;;;;;1.67;0.90;;;22.50;35.70;;;;;;5008938;28;20057;-63
2024/03/11 11:10:38;;;;;;;1.13;0.80;;;22.50;35.70;;;;;;5000363;28;20519;-69
2024/03/11 11:13:08;;;;;;;1.52;1.25;;;22.40;35.70;;;;;;5009930;28;20061;-68
2024/03/11 11:15:36;;;;;;;0.60;0.60;;;22.40;35.80;;;;;;5006733;28;20152;-73
2024/03/11 11:18:12;;;;;;;1.92;1.13;;;22.30;35.50;;;;;;5006031;28;20041;-70
2024/03/11 11:20:42;;;;;;;0.68;0.68;;;22.30;35.60;;;;;;5000010;28;20700;-66
2024/03/11 11:23:11;;;;;;;2.88;1.00;;;22.30;35.70;;;;;;5023577;28;20536;-66
2024/03/11 11:25:44;;;;;;;3.88;1.20;;;22.40;35.70;;;;;;5006077;28;20435;-64
2024/03/11 11:28:24;;;;;;;10.38;1.25;;;22.50;35.60;;;;;;5008239;28;20682;-64
2024/03/11 11:31:11;;;;;;;1.50;0.77;;;22.60;35.60;;;;;;5002828;28;20061;-70
2024/03/11 11:33:54;;;;;;;2.35;0.98;;;22.80;35.50;;;;;;5008512;28;20053;-65
2024/03/11 11:37:01;;;;;;;1.70;0.88;;;22.90;35.30;;;;;;5006898;28;20115;-67
2024/03/11 11:39:32;;;;;;;1.00;0.43;;;23.10;35.20;;;;;;5006820;28;20199;-66
2024/03/11 11:42:06;;;;;;;4.20;1.17;;;23.20;35.10;;;;;;5005405;28;20056;-64
2024/03/11 11:44:49;;;;;;;6.50;1.25;;;23.40;35.20;;;;;;4999268;28;20061;-68
2024/03/11 11:47:24;;;;;;;0.55;0.55;;;23.40;34.80;;;;;;5007519;28;20069;-67
2024/03/11 11:49:52;;;;;;;0.52;0.50;;;23.50;35.30;;;;;;5004815;28;20069;-67
2024/03/11 11:52:22;;;;;;;1.15;0.80;;;23.60;34.60;;;;;;5008938;28;20077;-68
2024/03/11 11:54:55;;;;;;;4.80;0.93;;;23.70;34.50;;;;;;5000684;28;20058;-68
2024/03/11 11:57:25;;;;;;;3.55;0.68;;;23.80;34.20;;;;;;5006485;28;20064;-69
2024/03/11 11:59:59;;;;;;;2.10;0.88;;;23.80;34.10;;;;;;5007097;28;20104;-52
2024/03/11 12:02:29;;;;;;;0.95;0.50;;;23.80;34.20;;;;;;5008773;28;21023;-65
2024/03/11 12:05:00;;;;;;;0.30;0.30;;;23.80;34.10;;;;;;5002369;28;20156;-63
2024/03/11 12:07:29;;;;;;;1.27;0.55;;;23.80;34.00;;;;;;5005487;28;20103;-67
2024/03/11 12:09:59;;;;;;;0.43;0.43;;;23.80;33.90;;;;;;5013790;28;20404;-63
2024/03/11 12:12:33;;;;;;;0.88;0.50;;;23.80;33.80;;;;;;5002966;28;20120;-62
2024/03/11 12:15:04;;;;;;;0.20;0.20;;;23.70;33.90;;;;;;5007372;28;20957;-67
2024/03/11 12:17:34;;;;;;;0.50;0.50;;;23.50;33.60;;;;;;5005134;28;20144;-66
2024/03/11 12:20:19;;;;;;;0.75;0.75;;;23.30;33.70;;;;;;5005954;28;20053;-66
2024/03/11 12:22:49;;;;;;;0.90;0.50;;;23.20;33.80;;;;;;5000548;28;20061;-69
2024/03/11 12:25:18;;;;;;;0.28;0.28;;;23.20;33.80;;;;;;5008494;28;20854;-67
2024/03/11 12:27:53;;;;;;;1.33;1.10;;;23.10;33.90;;;;;;5009437;28;20054;-66
2024/03/11 12:30:36;;;;;;;2.80;1.08;;;23.10;33.80;;;;;;5005611;28;20061;-66
2024/03/11 12:33:07;;;;;;;1.52;0.60;;;23.30;34.00;;;;;;5005888;28;20703;-71
2024/03/11 12:35:43;;;;;;;2.75;0.35;;;23.40;33.80;;;;;;5007935;28;20146;-67
2024/03/11 12:38:14;;;;;;;2.72;0.65;;;23.40;33.60;;;;;;5012232;28;20153;-67
2024/03/11 12:40:44;;;;;;;1.48;0.40;;;23.30;33.50;;;;;;5001109;28;20137;-62
2024/03/11 12:43:19;;;;;;;2.72;0.73;;;23.10;33.30;;;;;;5009912;28;20668;-66
2024/03/11 12:45:54;;;;;;;14.90;1.50;;;23.00;33.30;;;;;;5010233;28;20058;-61
2024/03/11 12:48:25;;;;;;;8.60;3.53;;;22.90;33.40;;;;;;5011762;28;20064;-62
2024/03/11 12:50:55;;;;;;;1.92;1.13;;;22.90;33.50;;;;;;5004270;28;20060;-66
2024/03/11 12:53:26;;;;;;;7.93;1.95;;;22.90;33.40;;;;;;5007546;28;20065;-64
2024/03/11 12:56:05;;;;;;;4.28;2.17;;;22.80;33.40;;;;;;5027781;28;20492;-64
2024/03/11 12:58:36;;;;;;;1.45;1.00;;;22.70;33.30;;;;;;5004159;28;20057;-66
2024/03/11 13:01:09;;;;;;;0.73;0.70;;;22.70;33.40;;;;;;5010650;28;20139;-66
2024/03/11 13:03:41;;;;;;;0.82;0.70;;;22.70;33.40;;;;;;5010045;28;20061;-63
2024/03/11 13:06:17;;;;;;;3.78;0.90;;;22.70;33.30;;;;;;5007640;28;20128;-63